createdAt,value
2019-05-30T00:01:23.473Z,55.90
2019-05-30T00:03:53.962Z,56.20
2019-05-30T00:06:23.272Z,56.40
2019-05-30T00:08:52.522Z,56.40
2019-05-30T00:11:21.860Z,56.40
2019-05-30T00:13:51.029Z,56.40
2019-05-30T00:16:20.232Z,56.40
2019-05-30T00:18:49.388Z,56.40
2019-05-30T00:21:18.625Z,56.40
2019-05-30T00:23:47.780Z,56.30
2019-05-30T00:26:16.954Z,56.30
2019-05-30T00:28:46.296Z,56.60
2019-05-30T00:31:15.556Z,56.60
2019-05-30T00:33:44.728Z,56.70
2019-05-30T00:36:14.021Z,56.80
2019-05-30T00:38:43.204Z,57.00
2019-05-30T00:41:12.484Z,57.00
2019-05-30T00:43:41.717Z,57.00
2019-05-30T00:46:11.005Z,57.00
2019-05-30T00:48:40.221Z,57.00
2019-05-30T00:51:09.549Z,56.80
2019-05-30T00:53:38.803Z,57.10
2019-05-30T00:56:08.015Z,57.30
2019-05-30T00:58:37.272Z,57.30
2019-05-30T01:01:07.151Z,57.40
2019-05-30T01:03:36.523Z,57.40
2019-05-30T01:06:07.148Z,57.40
2019-05-30T01:08:36.607Z,57.60
2019-05-30T01:11:07.389Z,57.70
2019-05-30T01:13:36.859Z,57.90
2019-05-30T01:16:07.241Z,57.90
2019-05-30T01:18:36.565Z,58.00
2019-05-30T01:21:05.871Z,58.10
2019-05-30T01:23:36.695Z,58.30
2019-05-30T01:26:05.942Z,58.20
2019-05-30T01:28:35.305Z,58.20
2019-05-30T01:31:09.598Z,58.20
2019-05-30T01:33:35.626Z,58.30
2019-05-30T01:36:05.822Z,58.40
2019-05-30T01:38:35.164Z,58.40
2019-05-30T01:41:04.453Z,58.40
2019-05-30T01:43:33.747Z,58.60
2019-05-30T01:46:04.128Z,58.80
2019-05-30T01:48:33.613Z,58.70
2019-05-30T01:51:02.913Z,58.80
2019-05-30T01:53:32.199Z,58.90
2019-05-30T01:56:02.601Z,59.00
2019-05-30T01:58:32.763Z,59.00
2019-05-30T02:01:17.114Z,59.00
2019-05-30T02:03:33.112Z,59.00
2019-05-30T02:06:03.288Z,59.10
2019-05-30T02:08:32.842Z,58.90
2019-05-30T02:11:03.291Z,58.90
2019-05-30T02:13:32.868Z,58.80
2019-05-30T02:16:02.096Z,58.80
2019-05-30T02:18:31.454Z,58.80
2019-05-30T02:21:02.059Z,58.90
2019-05-30T02:23:31.301Z,59.80
2019-05-30T02:26:00.484Z,60.00
2019-05-30T02:28:29.684Z,60.00
2019-05-30T02:31:00.431Z,60.30
2019-05-30T02:33:29.940Z,60.60
2019-05-30T02:36:01.046Z,60.60
2019-05-30T02:38:30.383Z,60.70
2019-05-30T02:41:01.306Z,60.70
2019-05-30T02:43:30.620Z,60.90
2019-05-30T02:46:00.942Z,60.70
2019-05-30T02:48:30.476Z,60.80
2019-05-30T02:51:01.030Z,61.10
2019-05-30T02:53:31.427Z,61.40
2019-05-30T02:56:03.653Z,61.20
2019-05-30T02:58:33.058Z,61.40
2019-05-30T03:01:04.036Z,61.50
2019-05-30T03:03:34.220Z,61.60
2019-05-30T03:06:03.981Z,61.70
2019-05-30T03:08:34.855Z,61.90
2019-05-30T03:11:05.067Z,61.90
2019-05-30T03:13:34.890Z,62.00
2019-05-30T03:16:05.036Z,62.10
2019-05-30T03:18:35.205Z,62.10
2019-05-30T03:21:05.666Z,62.10
2019-05-30T03:23:35.343Z,62.10
2019-05-30T03:26:05.499Z,62.80
2019-05-30T03:28:35.650Z,62.30
2019-05-30T03:31:13.933Z,62.10
2019-05-30T03:33:42.076Z,62.20
2019-05-30T03:36:15.536Z,62.20
2019-05-30T03:38:39.195Z,62.30
2019-05-30T03:41:11.369Z,62.30
2019-05-30T03:43:39.522Z,62.60
2019-05-30T03:46:14.877Z,62.50
2019-05-30T03:48:47.141Z,62.50
2019-05-30T03:51:18.934Z,62.60
2019-05-30T03:53:56.444Z,62.60
2019-05-30T03:56:34.108Z,62.80
2019-05-30T03:59:10.861Z,62.70
2019-05-30T04:01:57.286Z,62.70
2019-05-30T04:04:29.478Z,62.90
2019-05-30T04:07:03.875Z,63.00
2019-05-30T04:09:36.081Z,63.00
2019-05-30T04:12:16.491Z,62.90
2019-05-30T04:14:48.597Z,62.90
2019-05-30T04:17:19.833Z,63.00
2019-05-30T04:19:48.988Z,63.00
2019-05-30T04:22:19.635Z,62.10
2019-05-30T04:24:49.033Z,62.10
2019-05-30T04:27:18.668Z,62.20
2019-05-30T04:29:48.135Z,62.10
2019-05-30T04:32:18.677Z,62.30
2019-05-30T04:34:48.166Z,62.40
2019-05-30T04:37:18.937Z,62.30
2019-05-30T04:39:48.252Z,62.50
2019-05-30T04:42:18.866Z,62.50
2019-05-30T04:44:49.663Z,62.40
2019-05-30T04:47:20.597Z,62.30
2019-05-30T04:49:49.953Z,62.40
2019-05-30T04:52:22.662Z,62.50
2019-05-30T04:54:50.275Z,62.40
2019-05-30T04:57:25.191Z,63.10
2019-05-30T04:59:50.503Z,62.40
2019-05-30T05:02:21.086Z,62.30
2019-05-30T05:04:50.739Z,62.50
2019-05-30T05:07:20.014Z,62.50
2019-05-30T05:09:49.259Z,62.30
2019-05-30T05:12:18.471Z,62.30
2019-05-30T05:14:47.749Z,62.20
2019-05-30T05:17:17.043Z,62.30
2019-05-30T05:19:46.504Z,62.10
2019-05-30T05:22:16.913Z,62.10
2019-05-30T05:24:46.345Z,62.00
2019-05-30T05:27:15.605Z,61.90
2019-05-30T05:29:44.941Z,61.80
2019-05-30T05:32:14.230Z,61.80
2019-05-30T05:34:43.503Z,61.70
2019-05-30T05:37:12.707Z,61.60
2019-05-30T05:39:45.367Z,61.50
2019-05-30T05:42:16.069Z,61.50
2019-05-30T05:44:46.327Z,61.30
2019-05-30T05:47:21.101Z,61.30
2019-05-30T05:49:50.462Z,61.30
2019-05-30T05:52:20.715Z,61.30
2019-05-30T05:54:50.210Z,61.00
2019-05-30T05:57:20.588Z,61.00
2019-05-30T05:59:53.414Z,60.90
2019-05-30T06:02:23.272Z,60.70
2019-05-30T06:04:52.643Z,60.50
2019-05-30T06:07:22.412Z,60.30
2019-05-30T06:09:51.912Z,60.40
2019-05-30T06:12:21.724Z,59.80
2019-05-30T06:14:51.197Z,59.60
2019-05-30T06:17:21.169Z,59.40
2019-05-30T06:19:50.504Z,59.20
2019-05-30T06:22:19.706Z,59.10
2019-05-30T06:24:49.009Z,59.10
2019-05-30T06:27:19.796Z,59.00
2019-05-30T06:29:49.686Z,58.90
2019-05-30T06:32:20.909Z,58.80
2019-05-30T06:34:57.812Z,58.80
2019-05-30T06:37:27.359Z,58.60
2019-05-30T06:40:00.913Z,58.70
2019-05-30T06:42:31.545Z,58.40
2019-05-30T06:45:07.835Z,58.30
2019-05-30T06:47:55.223Z,57.90
2019-05-30T06:53:46.329Z,57.60
2019-05-30T06:56:44.807Z,57.40
2019-05-30T06:59:21.421Z,57.10
2019-05-30T07:01:52.345Z,57.00
2019-05-30T07:04:27.376Z,57.00
2019-05-30T07:06:58.513Z,56.90
2019-05-30T07:09:30.998Z,56.20
2019-05-30T07:12:01.227Z,56.00
2019-05-30T07:14:33.414Z,56.10
2019-05-30T07:17:05.343Z,55.80
2019-05-30T07:19:37.650Z,55.40
2019-05-30T07:22:05.989Z,55.30
2019-05-30T07:24:35.277Z,55.00
2019-05-30T07:27:23.769Z,55.00
2019-05-30T07:29:55.518Z,54.70
2019-05-30T07:32:25.875Z,54.40
2019-05-30T07:35:05.935Z,54.10
2019-05-30T07:37:34.415Z,53.90
2019-05-30T07:40:04.475Z,53.40
2019-05-30T07:42:34.795Z,52.80
2019-05-30T07:45:11.003Z,52.20
2019-05-30T07:47:50.580Z,52.00
2019-05-30T07:50:21.567Z,51.60
2019-05-30T07:52:51.311Z,51.20
2019-05-30T07:55:21.587Z,50.50
2019-05-30T07:57:50.952Z,50.30
2019-05-30T08:00:22.058Z,50.30
2019-05-30T08:02:51.644Z,50.20
2019-05-30T08:05:24.667Z,48.80
2019-05-30T08:07:52.700Z,47.70
2019-05-30T08:10:22.371Z,46.70
2019-05-30T08:12:52.046Z,46.70
2019-05-30T08:15:21.652Z,46.70
2019-05-30T08:17:50.975Z,46.40
2019-05-30T08:20:20.272Z,46.10
2019-05-30T08:22:49.804Z,45.40
2019-05-30T08:25:18.948Z,45.30
2019-05-30T08:27:48.306Z,45.20
2019-05-30T08:30:19.592Z,45.10
2019-05-30T08:32:48.845Z,45.10
2019-05-30T08:35:18.506Z,45.20
2019-05-30T08:37:47.752Z,45.00
2019-05-30T08:40:17.273Z,44.60
2019-05-30T08:42:46.484Z,44.40
2019-05-30T08:45:16.000Z,44.00
2019-05-30T08:47:45.233Z,44.00
2019-05-30T08:50:14.784Z,43.70
2019-05-30T08:52:44.029Z,43.70
2019-05-30T08:55:13.612Z,44.00
2019-05-30T08:57:42.889Z,43.60
2019-05-30T09:00:12.977Z,43.40
2019-05-30T09:02:42.915Z,43.10
2019-05-30T09:05:12.512Z,43.10
2019-05-30T09:07:42.974Z,42.80
2019-05-30T09:10:12.785Z,42.20
2019-05-30T09:12:43.684Z,42.00
2019-05-30T09:15:13.533Z,42.30
2019-05-30T09:17:44.582Z,42.50
2019-05-30T09:20:14.445Z,42.10
2019-05-30T09:22:49.509Z,41.90
2019-05-30T09:25:19.411Z,42.00
2019-05-30T09:27:48.640Z,42.00
2019-05-30T09:30:21.939Z,41.80
2019-05-30T09:32:51.321Z,41.60
2019-05-30T09:35:23.782Z,41.50
2019-05-30T09:37:55.439Z,41.40
2019-05-30T09:40:26.455Z,40.70
2019-05-30T09:42:58.315Z,40.50
2019-05-30T09:45:28.051Z,40.80
2019-05-30T09:47:57.291Z,40.80
2019-05-30T09:50:26.716Z,40.70
2019-05-30T09:52:56.087Z,40.60
2019-05-30T09:55:25.769Z,40.50
2019-05-30T09:57:55.104Z,41.30
2019-05-30T10:00:26.206Z,40.80
2019-05-30T10:02:55.618Z,40.70
2019-05-30T10:05:25.447Z,40.50
2019-05-30T10:07:54.701Z,40.00
2019-05-30T10:10:24.902Z,39.60
2019-05-30T10:12:56.548Z,39.50
2019-05-30T10:15:25.982Z,39.40
2019-05-30T10:17:56.878Z,40.00
2019-05-30T10:20:26.494Z,39.20
2019-05-30T10:22:57.250Z,39.00
2019-05-30T10:25:26.730Z,39.00
2019-05-30T10:27:57.978Z,39.00
2019-05-30T10:30:27.408Z,39.00
2019-05-30T10:32:57.138Z,38.90
2019-05-30T10:35:29.636Z,38.60
2019-05-30T10:37:57.876Z,38.60
2019-05-30T10:40:31.982Z,38.70
2019-05-30T10:42:58.596Z,38.60
2019-05-30T10:45:30.766Z,38.30
2019-05-30T10:48:56.809Z,38.40
2019-05-30T10:51:29.685Z,38.50
2019-05-30T10:53:59.074Z,38.30
2019-05-30T10:56:28.392Z,38.20
2019-05-30T10:58:57.655Z,38.00
2019-05-30T11:01:27.170Z,38.20
2019-05-30T11:03:57.032Z,38.20
2019-05-30T11:07:11.705Z,38.50
2019-05-30T11:09:44.872Z,38.20
2019-05-30T11:12:14.558Z,38.20
2019-05-30T11:14:44.392Z,38.40
2019-05-30T11:17:13.901Z,38.20
2019-05-30T11:19:43.345Z,37.90
2019-05-30T11:22:13.022Z,38.00
2019-05-30T11:24:42.913Z,38.20
2019-05-30T11:27:12.779Z,38.40
2019-05-30T11:30:12.947Z,37.90
2019-05-30T11:32:44.565Z,37.90
2019-05-30T11:36:10.079Z,37.90
2019-05-30T11:38:40.646Z,37.60
2019-05-30T11:41:10.305Z,36.90
2019-05-30T11:43:39.805Z,35.70
2019-05-30T11:46:09.365Z,35.30
2019-05-30T11:48:38.742Z,35.00
2019-05-30T11:51:10.159Z,34.10
2019-05-30T11:53:39.608Z,33.50
2019-05-30T11:56:08.887Z,33.20
2019-05-30T11:58:39.166Z,32.90
2019-05-30T12:01:08.488Z,32.40
2019-05-30T12:03:37.788Z,31.50
2019-05-30T12:06:07.071Z,31.10
2019-05-30T12:08:36.619Z,30.90
2019-05-30T12:11:06.304Z,30.00
2019-05-30T12:13:35.634Z,29.80
2019-05-30T12:16:04.904Z,28.50
2019-05-30T12:18:34.238Z,28.30
2019-05-30T12:21:03.392Z,28.10
2019-05-30T12:23:32.781Z,27.90
2019-05-30T12:26:02.348Z,27.50
2019-05-30T12:28:31.840Z,27.40
2019-05-30T12:31:04.545Z,26.80
2019-05-30T12:33:31.911Z,26.90
2019-05-30T12:36:01.092Z,26.80
2019-05-30T12:38:30.494Z,26.90
2019-05-30T12:41:00.897Z,26.70
2019-05-30T12:43:30.475Z,25.10
2019-05-30T12:46:01.163Z,25.80
2019-05-30T12:48:30.564Z,26.00
2019-05-30T12:51:01.378Z,25.70
2019-05-30T12:53:30.847Z,25.70
2019-05-30T12:56:00.559Z,25.60
2019-05-30T12:58:32.061Z,25.90
2019-05-30T13:01:01.269Z,25.80
2019-05-30T13:03:30.921Z,25.70
2019-05-30T13:06:01.126Z,25.50
2019-05-30T13:08:30.588Z,25.70
2019-05-30T13:10:59.881Z,25.60
2019-05-30T13:13:29.256Z,25.70
2019-05-30T13:15:58.776Z,25.60
2019-05-30T13:18:28.188Z,25.40
2019-05-30T13:20:57.962Z,25.40
2019-05-30T13:23:36.219Z,25.50
2019-05-30T13:26:05.911Z,25.80
2019-05-30T13:28:35.538Z,25.80
2019-05-30T13:31:04.898Z,25.60
2019-05-30T13:33:37.989Z,25.40
2019-05-30T13:36:05.549Z,25.70
2019-05-30T13:38:35.035Z,25.70
2019-05-30T13:41:10.149Z,25.90
2019-05-30T13:43:39.640Z,26.00
2019-05-30T13:46:09.063Z,25.80
2019-05-30T13:48:38.514Z,26.00
2019-05-30T13:51:14.057Z,25.80
2019-05-30T13:53:43.686Z,25.80
2019-05-30T13:56:13.218Z,25.60
2019-05-30T13:58:42.497Z,25.50
2019-05-30T14:01:13.964Z,26.00
2019-05-30T14:03:43.077Z,25.50
2019-05-30T14:06:16.325Z,25.40
2019-05-30T14:08:45.695Z,25.50
2019-05-30T14:11:15.070Z,25.70
2019-05-30T14:13:50.940Z,26.30
2019-05-30T14:16:22.554Z,25.70
2019-05-30T14:18:51.926Z,25.40
2019-05-30T14:21:21.378Z,25.10
2019-05-30T14:23:51.295Z,25.20
2019-05-30T14:26:21.123Z,25.20
2019-05-30T14:28:51.339Z,25.10
2019-05-30T14:31:21.030Z,25.30
2019-05-30T14:33:50.860Z,25.30
2019-05-30T14:36:20.294Z,25.40
2019-05-30T14:38:58.170Z,25.40
2019-05-30T14:41:20.796Z,25.30
2019-05-30T14:43:51.138Z,25.00
2019-05-30T14:46:20.818Z,24.90
2019-05-30T14:48:50.220Z,25.10
2019-05-30T14:51:19.520Z,25.10
2019-05-30T14:53:48.770Z,25.20
2019-05-30T14:56:17.984Z,25.20
2019-05-30T14:58:47.386Z,25.30
2019-05-30T15:01:17.527Z,25.20
2019-05-30T15:03:46.879Z,25.40
2019-05-30T15:06:17.807Z,25.20
2019-05-30T15:08:47.288Z,24.90
2019-05-30T15:11:16.413Z,25.00
2019-05-30T15:13:45.892Z,24.70
2019-05-30T15:16:15.277Z,24.80
2019-05-30T15:18:44.523Z,24.80
2019-05-30T15:21:14.559Z,24.70
2019-05-30T15:23:43.883Z,24.70
2019-05-30T15:26:14.189Z,24.70
2019-05-30T15:28:43.746Z,24.90
2019-05-30T15:31:14.912Z,24.80
2019-05-30T15:33:44.009Z,24.70
2019-05-30T15:36:13.401Z,24.70
2019-05-30T15:38:42.734Z,24.50
2019-05-30T15:41:13.081Z,24.50
2019-05-30T15:43:42.413Z,24.60
2019-05-30T15:46:11.829Z,24.70
2019-05-30T15:48:41.227Z,24.70
2019-05-30T15:51:10.525Z,24.60
2019-05-30T15:53:39.725Z,24.90
2019-05-30T15:56:09.085Z,25.10
2019-05-30T15:58:38.344Z,25.30
2019-05-30T16:01:08.086Z,25.50
2019-05-30T16:03:37.261Z,25.60
2019-05-30T16:06:06.576Z,25.50
2019-05-30T16:08:35.822Z,25.50
2019-05-30T16:11:04.975Z,25.40
2019-05-30T16:13:34.221Z,25.50
2019-05-30T16:16:03.588Z,25.50
2019-05-30T16:18:40.785Z,25.60
2019-05-30T16:21:13.027Z,25.90
2019-05-30T16:23:41.589Z,25.80
2019-05-30T16:26:11.349Z,25.70
2019-05-30T16:28:48.563Z,25.90
2019-05-30T16:31:20.309Z,25.90
2019-05-30T16:33:50.173Z,26.10
2019-05-30T16:36:20.297Z,26.20
2019-05-30T16:38:49.860Z,26.30
2019-05-30T16:41:20.425Z,26.40
2019-05-30T16:43:50.285Z,26.40
2019-05-30T16:46:20.532Z,26.30
2019-05-30T16:48:50.097Z,26.10
2019-05-30T16:51:21.188Z,26.20
2019-05-30T16:53:51.215Z,26.40
2019-05-30T16:56:23.626Z,26.60
2019-05-30T16:58:53.091Z,26.40
2019-05-30T17:01:23.992Z,26.30
2019-05-30T17:03:55.408Z,26.40
2019-05-30T17:06:26.037Z,26.80
2019-05-30T17:09:01.722Z,26.90
2019-05-30T17:11:31.170Z,26.70
2019-05-30T17:14:00.489Z,26.70
2019-05-30T17:16:29.868Z,26.90
2019-05-30T17:18:59.338Z,27.10
2019-05-30T17:21:29.150Z,27.30
2019-05-30T17:23:58.316Z,27.50
2019-05-30T17:26:27.664Z,27.60
2019-05-30T17:28:58.445Z,27.60
2019-05-30T17:31:28.646Z,27.90
2019-05-30T17:33:58.070Z,27.90
2019-05-30T17:36:29.738Z,28.00
2019-05-30T17:39:01.943Z,28.10
2019-05-30T17:41:33.920Z,28.20
2019-05-30T17:44:03.242Z,28.40
2019-05-30T17:46:34.787Z,28.40
2019-05-30T17:49:03.961Z,28.30
2019-05-30T17:51:34.391Z,28.20
2019-05-30T17:54:05.895Z,28.40
2019-05-30T17:56:36.704Z,28.50
2019-05-30T17:59:09.452Z,28.80
2019-05-30T18:01:41.722Z,29.00
2019-05-30T18:04:10.980Z,29.20
2019-05-30T18:06:40.457Z,29.40
2019-05-30T18:09:09.934Z,29.70
2019-05-30T18:11:39.611Z,30.00
2019-05-30T18:14:09.045Z,30.40
2019-05-30T18:16:38.327Z,30.50
2019-05-30T18:19:07.481Z,30.80
2019-05-30T18:21:36.742Z,31.10
2019-05-30T18:24:06.178Z,31.30
2019-05-30T18:26:35.724Z,31.50
2019-05-30T18:29:06.395Z,31.70
2019-05-30T18:31:35.619Z,32.40
2019-05-30T18:34:04.996Z,32.60
2019-05-30T18:36:34.261Z,33.70
2019-05-30T18:39:03.595Z,35.20
2019-05-30T18:41:32.933Z,35.90
2019-05-30T18:44:02.323Z,35.90
2019-05-30T18:46:31.841Z,36.50
2019-05-30T18:49:01.069Z,36.60
2019-05-30T18:51:30.417Z,37.30
2019-05-30T18:54:00.231Z,37.90
2019-05-30T18:56:30.654Z,38.10
2019-05-30T18:58:59.985Z,38.50
2019-05-30T19:01:29.646Z,38.80
2019-05-30T19:03:59.282Z,39.00
2019-05-30T19:06:29.805Z,39.00
2019-05-30T19:09:05.385Z,39.00
2019-05-30T19:11:36.584Z,39.30
2019-05-30T19:14:05.953Z,39.40
2019-05-30T19:16:36.709Z,39.90
2019-05-30T19:19:06.435Z,40.20
2019-05-30T19:21:36.196Z,40.60
2019-05-30T19:24:07.633Z,40.80
2019-05-30T19:26:37.025Z,41.00
2019-05-30T19:29:06.232Z,41.30
2019-05-30T19:31:36.840Z,41.60
2019-05-30T19:34:06.940Z,41.90
2019-05-30T19:36:38.352Z,42.10
2019-05-30T19:39:08.180Z,42.40
2019-05-30T19:41:53.788Z,42.50
2019-05-30T19:44:10.236Z,42.60
2019-05-30T19:46:39.685Z,42.80
2019-05-30T19:49:09.076Z,42.90
2019-05-30T19:51:51.579Z,42.90
2019-05-30T19:54:21.124Z,43.10
2019-05-30T19:56:50.440Z,43.20
2019-05-30T19:59:19.664Z,43.50
2019-05-30T20:01:48.994Z,43.70
2019-05-30T20:04:18.216Z,43.70
2019-05-30T20:06:47.576Z,44.00
2019-05-30T20:09:17.471Z,44.30
2019-05-30T20:12:02.092Z,44.30
2019-05-30T20:14:17.975Z,44.50
2019-05-30T20:16:47.165Z,44.70
2019-05-30T20:19:16.388Z,44.80
2019-05-30T20:21:45.604Z,45.00
2019-05-30T20:24:14.941Z,45.10
2019-05-30T20:26:44.525Z,45.30
2019-05-30T20:29:13.856Z,45.50
2019-05-30T20:31:43.638Z,45.60
2019-05-30T20:34:13.299Z,45.90
2019-05-30T20:36:48.541Z,46.20
2019-05-30T20:39:17.832Z,46.40
2019-05-30T20:41:47.266Z,46.50
2019-05-30T20:44:16.769Z,46.70
2019-05-30T20:46:47.259Z,46.80
2019-05-30T20:49:16.874Z,46.90
2019-05-30T20:51:47.480Z,46.90
2019-05-30T20:54:16.908Z,46.90
2019-05-30T20:56:50.083Z,47.10
2019-05-30T20:59:17.430Z,47.10
2019-05-30T21:01:46.610Z,47.20
2019-05-30T21:04:15.853Z,47.30
2019-05-30T21:06:45.656Z,47.50
2019-05-30T21:09:28.346Z,47.50
2019-05-30T21:11:46.610Z,47.60
2019-05-30T21:14:17.907Z,47.60
2019-05-30T21:16:48.894Z,47.60
2019-05-30T21:19:18.199Z,47.70
2019-05-30T21:21:47.567Z,47.70
2019-05-30T21:24:16.792Z,47.90
2019-05-30T21:26:46.987Z,47.70
2019-05-30T21:29:16.657Z,47.70
2019-05-30T21:31:47.458Z,47.70
2019-05-30T21:34:16.939Z,47.80
2019-05-30T21:36:46.348Z,47.90
2019-05-30T21:39:15.673Z,47.90
2019-05-30T21:41:46.288Z,47.90
2019-05-30T21:44:15.697Z,48.00
2019-05-30T21:46:46.671Z,48.10
2019-05-30T21:49:16.227Z,48.20
2019-05-30T21:51:45.629Z,48.20
2019-05-30T21:54:14.956Z,48.30
2019-05-30T21:56:44.427Z,48.40
2019-05-30T21:59:13.865Z,48.60
2019-05-30T22:01:44.754Z,48.70
2019-05-30T22:04:14.209Z,48.80
2019-05-30T22:06:43.423Z,48.80
2019-05-30T22:09:14.570Z,48.90
2019-05-30T22:11:43.912Z,48.90
2019-05-30T22:14:13.376Z,49.00
2019-05-30T22:16:43.858Z,49.00
2019-05-30T22:19:13.412Z,49.00
2019-05-30T22:21:42.611Z,49.10
2019-05-30T22:24:13.129Z,49.10
2019-05-30T22:26:42.553Z,49.20
2019-05-30T22:29:11.970Z,49.10
2019-05-30T22:31:42.462Z,49.20
2019-05-30T22:34:11.966Z,49.30
2019-05-30T22:36:42.618Z,49.30
2019-05-30T22:39:15.396Z,49.30
2019-05-30T22:41:45.787Z,49.40
2019-05-30T22:44:15.204Z,49.50
2019-05-30T22:46:44.536Z,49.60
2019-05-30T22:49:13.895Z,49.70
2019-05-30T22:51:43.251Z,49.70
2019-05-30T22:54:12.472Z,49.70
2019-05-30T22:56:41.809Z,49.70
2019-05-30T22:59:11.283Z,50.50
2019-05-30T23:01:40.543Z,49.90
2019-05-30T23:04:09.926Z,49.90
2019-05-30T23:06:39.404Z,50.00
2019-05-30T23:09:09.751Z,50.00
2019-05-30T23:11:39.201Z,50.00
2019-05-30T23:14:08.491Z,50.10
2019-05-30T23:16:37.691Z,50.10
2019-05-30T23:19:12.901Z,50.20
2019-05-30T23:21:42.261Z,50.20
2019-05-30T23:24:11.636Z,50.20
2019-05-30T23:26:41.057Z,50.30
2019-05-30T23:29:10.504Z,50.40
2019-05-30T23:31:39.966Z,50.40
2019-05-30T23:34:09.231Z,50.50
2019-05-30T23:36:38.455Z,50.60
2019-05-30T23:39:08.025Z,50.60
2019-05-30T23:41:37.345Z,50.70
2019-05-30T23:44:11.448Z,50.80
2019-05-30T23:46:37.853Z,50.90
2019-05-30T23:49:07.197Z,51.00
2019-05-30T23:51:36.685Z,51.20
2019-05-30T23:54:05.985Z,51.20
2019-05-30T23:56:35.652Z,51.30
2019-05-30T23:59:05.324Z,51.40
